sensor_id;sensor_type;location;lat;lon;timestamp;P1;durP1;ratioP1;P2;durP2;ratioP2
62572;SDS011;48626;51.678;5.806;2023-05-07T00:01:42;7.93;;;4.93;;
62572;SDS011;48626;51.678;5.806;2023-05-07T00:04:08;7.68;;;5.28;;
62572;SDS011;48626;51.678;5.806;2023-05-07T00:06:34;7.50;;;4.78;;
62572;SDS011;48626;51.678;5.806;2023-05-07T00:09:00;7.80;;;4.57;;
62572;SDS011;48626;51.678;5.806;2023-05-07T00:11:26;6.35;;;4.88;;
62572;SDS011;48626;51.678;5.806;2023-05-07T00:13:53;8.13;;;5.40;;
62572;SDS011;48626;51.678;5.806;2023-05-07T00:16:18;11.13;;;5.28;;
62572;SDS011;48626;51.678;5.806;2023-05-07T00:18:44;9.98;;;4.93;;
62572;SDS011;48626;51.678;5.806;2023-05-07T00:21:10;8.55;;;5.13;;
62572;SDS011;48626;51.678;5.806;2023-05-07T00:23:36;9.07;;;5.38;;
62572;SDS011;48626;51.678;5.806;2023-05-07T00:26:02;8.98;;;5.13;;
62572;SDS011;48626;51.678;5.806;2023-05-07T00:28:28;9.75;;;6.15;;
62572;SDS011;48626;51.678;5.806;2023-05-07T00:30:53;8.48;;;5.60;;
62572;SDS011;48626;51.678;5.806;2023-05-07T00:33:19;9.52;;;5.80;;
62572;SDS011;48626;51.678;5.806;2023-05-07T00:35:45;8.73;;;6.20;;
62572;SDS011;48626;51.678;5.806;2023-05-07T00:38:11;8.68;;;5.93;;
62572;SDS011;48626;51.678;5.806;2023-05-07T00:40:37;9.63;;;5.90;;
62572;SDS011;48626;51.678;5.806;2023-05-07T00:43:02;9.15;;;5.85;;
62572;SDS011;48626;51.678;5.806;2023-05-07T00:45:28;11.05;;;6.40;;
62572;SDS011;48626;51.678;5.806;2023-05-07T00:47:58;8.88;;;6.65;;
62572;SDS011;48626;51.678;5.806;2023-05-07T00:50:28;10.07;;;6.45;;
62572;SDS011;48626;51.678;5.806;2023-05-07T00:52:55;9.70;;;6.37;;
62572;SDS011;48626;51.678;5.806;2023-05-07T00:55:21;9.27;;;6.03;;
62572;SDS011;48626;51.678;5.806;2023-05-07T00:57:48;9.93;;;6.35;;
62572;SDS011;48626;51.678;5.806;2023-05-07T01:00:15;7.97;;;6.43;;
62572;SDS011;48626;51.678;5.806;2023-05-07T01:02:42;9.40;;;6.35;;
62572;SDS011;48626;51.678;5.806;2023-05-07T01:05:09;9.38;;;6.80;;
62572;SDS011;48626;51.678;5.806;2023-05-07T01:07:38;8.83;;;6.10;;
62572;SDS011;48626;51.678;5.806;2023-05-07T01:10:05;9.55;;;6.82;;
62572;SDS011;48626;51.678;5.806;2023-05-07T01:12:32;9.18;;;6.80;;
62572;SDS011;48626;51.678;5.806;2023-05-07T01:14:59;10.38;;;6.60;;
62572;SDS011;48626;51.678;5.806;2023-05-07T01:17:25;10.20;;;6.85;;
62572;SDS011;48626;51.678;5.806;2023-05-07T01:19:51;11.50;;;7.03;;
62572;SDS011;48626;51.678;5.806;2023-05-07T01:22:23;10.80;;;6.65;;
62572;SDS011;48626;51.678;5.806;2023-05-07T01:25:12;10.35;;;6.97;;
62572;SDS011;48626;51.678;5.806;2023-05-07T01:27:38;11.02;;;7.45;;
62572;SDS011;48626;51.678;5.806;2023-05-07T01:30:04;13.25;;;7.88;;
62572;SDS011;48626;51.678;5.806;2023-05-07T01:32:43;11.65;;;7.63;;
62572;SDS011;48626;51.678;5.806;2023-05-07T01:35:19;13.10;;;8.23;;
62572;SDS011;48626;51.678;5.806;2023-05-07T01:37:47;11.60;;;7.25;;
62572;SDS011;48626;51.678;5.806;2023-05-07T01:40:14;13.20;;;9.50;;
62572;SDS011;48626;51.678;5.806;2023-05-07T01:42:40;12.45;;;8.95;;
62572;SDS011;48626;51.678;5.806;2023-05-07T01:45:08;11.48;;;8.10;;
62572;SDS011;48626;51.678;5.806;2023-05-07T01:47:34;10.80;;;7.78;;
62572;SDS011;48626;51.678;5.806;2023-05-07T01:50:01;11.80;;;8.52;;
62572;SDS011;48626;51.678;5.806;2023-05-07T01:52:27;11.98;;;8.20;;
62572;SDS011;48626;51.678;5.806;2023-05-07T01:54:53;15.50;;;8.90;;
62572;SDS011;48626;51.678;5.806;2023-05-07T01:57:18;16.52;;;8.93;;
62572;SDS011;48626;51.678;5.806;2023-05-07T01:59:44;15.25;;;9.73;;
62572;SDS011;48626;51.678;5.806;2023-05-07T02:02:10;17.23;;;10.05;;
62572;SDS011;48626;51.678;5.806;2023-05-07T02:04:35;15.73;;;9.85;;
62572;SDS011;48626;51.678;5.806;2023-05-07T02:07:01;17.05;;;10.65;;
62572;SDS011;48626;51.678;5.806;2023-05-07T02:09:27;14.95;;;10.70;;
62572;SDS011;48626;51.678;5.806;2023-05-07T02:11:53;12.55;;;9.65;;
62572;SDS011;48626;51.678;5.806;2023-05-07T02:14:18;13.52;;;9.48;;
62572;SDS011;48626;51.678;5.806;2023-05-07T02:16:45;14.60;;;9.95;;
62572;SDS011;48626;51.678;5.806;2023-05-07T02:19:10;14.07;;;9.98;;
62572;SDS011;48626;51.678;5.806;2023-05-07T02:21:36;15.32;;;10.80;;
62572;SDS011;48626;51.678;5.806;2023-05-07T02:24:02;13.25;;;9.10;;
62572;SDS011;48626;51.678;5.806;2023-05-07T02:26:28;13.50;;;9.85;;
62572;SDS011;48626;51.678;5.806;2023-05-07T02:28:53;11.93;;;9.48;;
62572;SDS011;48626;51.678;5.806;2023-05-07T02:31:19;13.35;;;10.05;;
62572;SDS011;48626;51.678;5.806;2023-05-07T02:33:44;16.88;;;11.35;;
62572;SDS011;48626;51.678;5.806;2023-05-07T02:36:11;13.60;;;10.68;;
62572;SDS011;48626;51.678;5.806;2023-05-07T02:38:37;14.98;;;10.73;;
62572;SDS011;48626;51.678;5.806;2023-05-07T02:41:03;17.17;;;11.52;;
62572;SDS011;48626;51.678;5.806;2023-05-07T02:43:29;16.38;;;11.40;;
62572;SDS011;48626;51.678;5.806;2023-05-07T02:46:05;15.15;;;11.30;;
62572;SDS011;48626;51.678;5.806;2023-05-07T02:48:32;15.32;;;11.30;;
62572;SDS011;48626;51.678;5.806;2023-05-07T02:50:58;15.38;;;10.90;;
62572;SDS011;48626;51.678;5.806;2023-05-07T02:53:24;18.67;;;12.23;;
62572;SDS011;48626;51.678;5.806;2023-05-07T02:55:58;15.60;;;12.38;;
62572;SDS011;48626;51.678;5.806;2023-05-07T02:58:24;15.63;;;11.38;;
62572;SDS011;48626;51.678;5.806;2023-05-07T03:00:50;14.88;;;12.00;;
62572;SDS011;48626;51.678;5.806;2023-05-07T03:03:16;19.33;;;12.90;;
62572;SDS011;48626;51.678;5.806;2023-05-07T03:05:42;18.00;;;12.88;;
62572;SDS011;48626;51.678;5.806;2023-05-07T03:08:08;23.45;;;12.20;;
62572;SDS011;48626;51.678;5.806;2023-05-07T03:10:34;17.40;;;12.10;;
62572;SDS011;48626;51.678;5.806;2023-05-07T03:13:01;16.83;;;12.75;;
62572;SDS011;48626;51.678;5.806;2023-05-07T03:15:27;18.60;;;12.50;;
62572;SDS011;48626;51.678;5.806;2023-05-07T03:17:52;14.27;;;11.50;;
62572;SDS011;48626;51.678;5.806;2023-05-07T03:20:18;19.00;;;12.80;;
62572;SDS011;48626;51.678;5.806;2023-05-07T03:22:43;17.20;;;13.77;;
62572;SDS011;48626;51.678;5.806;2023-05-07T03:25:09;16.88;;;12.27;;
62572;SDS011;48626;51.678;5.806;2023-05-07T03:27:35;21.42;;;13.88;;
62572;SDS011;48626;51.678;5.806;2023-05-07T03:30:02;19.48;;;14.13;;
62572;SDS011;48626;51.678;5.806;2023-05-07T03:32:27;23.80;;;14.18;;
62572;SDS011;48626;51.678;5.806;2023-05-07T03:34:53;17.50;;;13.73;;
62572;SDS011;48626;51.678;5.806;2023-05-07T03:37:19;19.42;;;14.18;;
62572;SDS011;48626;51.678;5.806;2023-05-07T03:39:44;23.38;;;13.98;;
62572;SDS011;48626;51.678;5.806;2023-05-07T03:42:10;18.08;;;14.35;;
62572;SDS011;48626;51.678;5.806;2023-05-07T03:44:36;18.33;;;14.05;;
62572;SDS011;48626;51.678;5.806;2023-05-07T03:47:02;18.80;;;14.65;;
62572;SDS011;48626;51.678;5.806;2023-05-07T03:49:28;16.70;;;13.65;;
62572;SDS011;48626;51.678;5.806;2023-05-07T03:51:53;15.65;;;13.75;;
62572;SDS011;48626;51.678;5.806;2023-05-07T03:54:19;17.10;;;14.23;;
62572;SDS011;48626;51.678;5.806;2023-05-07T03:56:45;25.27;;;15.05;;
62572;SDS011;48626;51.678;5.806;2023-05-07T03:59:11;17.77;;;14.52;;
62572;SDS011;48626;51.678;5.806;2023-05-07T04:01:40;21.08;;;15.60;;
62572;SDS011;48626;51.678;5.806;2023-05-07T04:04:05;24.35;;;15.82;;
62572;SDS011;48626;51.678;5.806;2023-05-07T04:06:31;20.15;;;15.68;;
62572;SDS011;48626;51.678;5.806;2023-05-07T04:08:57;18.40;;;14.50;;
62572;SDS011;48626;51.678;5.806;2023-05-07T04:11:23;19.80;;;15.48;;
62572;SDS011;48626;51.678;5.806;2023-05-07T04:13:49;21.98;;;15.93;;
62572;SDS011;48626;51.678;5.806;2023-05-07T04:16:15;19.55;;;15.70;;
62572;SDS011;48626;51.678;5.806;2023-05-07T04:18:41;20.55;;;15.23;;
62572;SDS011;48626;51.678;5.806;2023-05-07T04:21:16;22.30;;;16.45;;
62572;SDS011;48626;51.678;5.806;2023-05-07T04:23:43;20.42;;;15.73;;
62572;SDS011;48626;51.678;5.806;2023-05-07T04:26:09;24.73;;;16.90;;
62572;SDS011;48626;51.678;5.806;2023-05-07T04:28:35;27.50;;;17.95;;
62572;SDS011;48626;51.678;5.806;2023-05-07T04:31:01;19.92;;;16.60;;
62572;SDS011;48626;51.678;5.806;2023-05-07T04:33:26;20.45;;;16.17;;
62572;SDS011;48626;51.678;5.806;2023-05-07T04:35:52;23.40;;;17.88;;
62572;SDS011;48626;51.678;5.806;2023-05-07T04:38:18;22.02;;;17.00;;
62572;SDS011;48626;51.678;5.806;2023-05-07T04:40:44;23.63;;;16.33;;
62572;SDS011;48626;51.678;5.806;2023-05-07T04:43:09;27.60;;;18.30;;
62572;SDS011;48626;51.678;5.806;2023-05-07T04:45:35;26.10;;;18.63;;
62572;SDS011;48626;51.678;5.806;2023-05-07T04:48:01;25.17;;;17.65;;
62572;SDS011;48626;51.678;5.806;2023-05-07T04:50:27;25.80;;;17.65;;
62572;SDS011;48626;51.678;5.806;2023-05-07T04:52:53;24.02;;;16.55;;
62572;SDS011;48626;51.678;5.806;2023-05-07T04:55:18;23.27;;;17.02;;
62572;SDS011;48626;51.678;5.806;2023-05-07T04:57:44;24.45;;;17.17;;
62572;SDS011;48626;51.678;5.806;2023-05-07T05:00:10;26.58;;;16.98;;
62572;SDS011;48626;51.678;5.806;2023-05-07T05:02:39;21.08;;;16.88;;
62572;SDS011;48626;51.678;5.806;2023-05-07T05:05:05;25.30;;;17.27;;
62572;SDS011;48626;51.678;5.806;2023-05-07T05:07:31;22.38;;;16.77;;
62572;SDS011;48626;51.678;5.806;2023-05-07T05:09:56;23.38;;;17.83;;
62572;SDS011;48626;51.678;5.806;2023-05-07T05:12:22;28.73;;;17.73;;
62572;SDS011;48626;51.678;5.806;2023-05-07T05:14:48;22.65;;;17.65;;
62572;SDS011;48626;51.678;5.806;2023-05-07T05:17:14;20.63;;;16.85;;
62572;SDS011;48626;51.678;5.806;2023-05-07T05:19:39;22.25;;;17.50;;
62572;SDS011;48626;51.678;5.806;2023-05-07T05:22:05;24.15;;;16.90;;
62572;SDS011;48626;51.678;5.806;2023-05-07T05:24:31;21.75;;;16.70;;
62572;SDS011;48626;51.678;5.806;2023-05-07T05:26:57;25.40;;;17.35;;
62572;SDS011;48626;51.678;5.806;2023-05-07T05:29:24;21.92;;;16.83;;
62572;SDS011;48626;51.678;5.806;2023-05-07T05:31:50;24.23;;;17.67;;
62572;SDS011;48626;51.678;5.806;2023-05-07T05:34:16;24.30;;;17.38;;
62572;SDS011;48626;51.678;5.806;2023-05-07T05:36:44;25.65;;;17.55;;
62572;SDS011;48626;51.678;5.806;2023-05-07T05:39:10;23.02;;;16.98;;
62572;SDS011;48626;51.678;5.806;2023-05-07T05:41:36;23.65;;;16.90;;
62572;SDS011;48626;51.678;5.806;2023-05-07T05:44:01;24.58;;;17.77;;
62572;SDS011;48626;51.678;5.806;2023-05-07T05:46:27;23.35;;;17.60;;
62572;SDS011;48626;51.678;5.806;2023-05-07T05:48:52;25.95;;;17.85;;
62572;SDS011;48626;51.678;5.806;2023-05-07T05:51:18;25.33;;;17.67;;
62572;SDS011;48626;51.678;5.806;2023-05-07T05:53:45;22.85;;;17.23;;
62572;SDS011;48626;51.678;5.806;2023-05-07T05:56:11;26.77;;;18.23;;
62572;SDS011;48626;51.678;5.806;2023-05-07T05:58:37;24.00;;;18.00;;
62572;SDS011;48626;51.678;5.806;2023-05-07T06:01:02;24.15;;;17.30;;
62572;SDS011;48626;51.678;5.806;2023-05-07T06:03:28;22.50;;;17.20;;
62572;SDS011;48626;51.678;5.806;2023-05-07T06:05:54;24.05;;;18.02;;
62572;SDS011;48626;51.678;5.806;2023-05-07T06:08:19;23.63;;;17.45;;
62572;SDS011;48626;51.678;5.806;2023-05-07T06:10:45;21.75;;;17.42;;
62572;SDS011;48626;51.678;5.806;2023-05-07T06:13:11;23.90;;;17.50;;
62572;SDS011;48626;51.678;5.806;2023-05-07T06:15:36;24.40;;;17.52;;
62572;SDS011;48626;51.678;5.806;2023-05-07T06:18:02;21.65;;;17.38;;
62572;SDS011;48626;51.678;5.806;2023-05-07T06:20:28;22.55;;;17.17;;
62572;SDS011;48626;51.678;5.806;2023-05-07T06:22:53;22.63;;;17.27;;
62572;SDS011;48626;51.678;5.806;2023-05-07T06:25:19;27.73;;;17.88;;
62572;SDS011;48626;51.678;5.806;2023-05-07T06:27:45;23.95;;;17.58;;
62572;SDS011;48626;51.678;5.806;2023-05-07T06:30:10;25.83;;;17.73;;
62572;SDS011;48626;51.678;5.806;2023-05-07T06:32:36;23.63;;;17.23;;
62572;SDS011;48626;51.678;5.806;2023-05-07T06:35:02;25.40;;;17.80;;
62572;SDS011;48626;51.678;5.806;2023-05-07T06:37:28;21.65;;;17.38;;
62572;SDS011;48626;51.678;5.806;2023-05-07T06:39:54;25.67;;;17.73;;
62572;SDS011;48626;51.678;5.806;2023-05-07T06:42:19;22.65;;;17.13;;
62572;SDS011;48626;51.678;5.806;2023-05-07T06:44:45;23.63;;;17.13;;
62572;SDS011;48626;51.678;5.806;2023-05-07T06:47:10;20.00;;;16.27;;
62572;SDS011;48626;51.678;5.806;2023-05-07T06:49:36;23.60;;;17.10;;
62572;SDS011;48626;51.678;5.806;2023-05-07T06:52:02;24.85;;;16.70;;
62572;SDS011;48626;51.678;5.806;2023-05-07T06:54:28;25.35;;;16.95;;
62572;SDS011;48626;51.678;5.806;2023-05-07T06:56:54;21.58;;;16.35;;
62572;SDS011;48626;51.678;5.806;2023-05-07T06:59:20;21.33;;;16.40;;
62572;SDS011;48626;51.678;5.806;2023-05-07T07:01:45;25.40;;;16.10;;
62572;SDS011;48626;51.678;5.806;2023-05-07T07:04:11;25.45;;;15.73;;
62572;SDS011;48626;51.678;5.806;2023-05-07T07:06:37;27.45;;;17.00;;
62572;SDS011;48626;51.678;5.806;2023-05-07T07:09:02;23.00;;;16.25;;
62572;SDS011;48626;51.678;5.806;2023-05-07T07:11:28;20.70;;;15.25;;
62572;SDS011;48626;51.678;5.806;2023-05-07T07:13:54;22.20;;;15.82;;
62572;SDS011;48626;51.678;5.806;2023-05-07T07:16:20;21.15;;;15.45;;
62572;SDS011;48626;51.678;5.806;2023-05-07T07:18:46;22.55;;;16.40;;
62572;SDS011;48626;51.678;5.806;2023-05-07T07:21:12;22.95;;;15.38;;
62572;SDS011;48626;51.678;5.806;2023-05-07T07:23:37;21.05;;;14.63;;
62572;SDS011;48626;51.678;5.806;2023-05-07T07:26:03;22.50;;;14.88;;
62572;SDS011;48626;51.678;5.806;2023-05-07T07:28:29;24.48;;;15.27;;
62572;SDS011;48626;51.678;5.806;2023-05-07T07:30:54;21.77;;;14.77;;
62572;SDS011;48626;51.678;5.806;2023-05-07T07:33:20;24.52;;;14.48;;
62572;SDS011;48626;51.678;5.806;2023-05-07T07:35:45;18.42;;;14.02;;
62572;SDS011;48626;51.678;5.806;2023-05-07T07:38:11;22.20;;;14.60;;
62572;SDS011;48626;51.678;5.806;2023-05-07T07:40:37;18.90;;;13.82;;
62572;SDS011;48626;51.678;5.806;2023-05-07T07:43:02;20.45;;;13.20;;
62572;SDS011;48626;51.678;5.806;2023-05-07T07:45:28;21.63;;;14.43;;
62572;SDS011;48626;51.678;5.806;2023-05-07T07:47:54;19.40;;;13.45;;
62572;SDS011;48626;51.678;5.806;2023-05-07T07:50:19;20.15;;;13.80;;
62572;SDS011;48626;51.678;5.806;2023-05-07T07:52:45;16.70;;;12.95;;
62572;SDS011;48626;51.678;5.806;2023-05-07T07:55:11;18.45;;;13.35;;
62572;SDS011;48626;51.678;5.806;2023-05-07T07:57:37;18.85;;;12.90;;
62572;SDS011;48626;51.678;5.806;2023-05-07T08:00:03;20.15;;;13.25;;
62572;SDS011;48626;51.678;5.806;2023-05-07T08:02:29;18.45;;;12.60;;
62572;SDS011;48626;51.678;5.806;2023-05-07T08:04:55;18.75;;;12.27;;
62572;SDS011;48626;51.678;5.806;2023-05-07T08:07:21;17.50;;;12.15;;
62572;SDS011;48626;51.678;5.806;2023-05-07T08:09:47;20.98;;;13.40;;
62572;SDS011;48626;51.678;5.806;2023-05-07T08:12:13;19.95;;;12.93;;
62572;SDS011;48626;51.678;5.806;2023-05-07T08:14:39;18.05;;;12.85;;
62572;SDS011;48626;51.678;5.806;2023-05-07T08:17:06;18.15;;;12.85;;
62572;SDS011;48626;51.678;5.806;2023-05-07T08:19:31;15.50;;;11.80;;
62572;SDS011;48626;51.678;5.806;2023-05-07T08:21:57;14.75;;;12.50;;
62572;SDS011;48626;51.678;5.806;2023-05-07T08:24:23;17.30;;;12.65;;
62572;SDS011;48626;51.678;5.806;2023-05-07T08:26:48;17.85;;;12.77;;
62572;SDS011;48626;51.678;5.806;2023-05-07T08:29:14;18.00;;;12.82;;
62572;SDS011;48626;51.678;5.806;2023-05-07T08:31:40;16.65;;;12.02;;
62572;SDS011;48626;51.678;5.806;2023-05-07T08:34:06;16.92;;;11.43;;
62572;SDS011;48626;51.678;5.806;2023-05-07T08:36:32;14.55;;;11.35;;
62572;SDS011;48626;51.678;5.806;2023-05-07T08:38:59;15.88;;;11.07;;
62572;SDS011;48626;51.678;5.806;2023-05-07T08:41:25;17.40;;;11.55;;
62572;SDS011;48626;51.678;5.806;2023-05-07T08:43:50;16.80;;;11.85;;
62572;SDS011;48626;51.678;5.806;2023-05-07T08:46:17;15.13;;;11.35;;
62572;SDS011;48626;51.678;5.806;2023-05-07T08:48:50;15.18;;;11.30;;
62572;SDS011;48626;51.678;5.806;2023-05-07T08:51:19;15.65;;;11.15;;
62572;SDS011;48626;51.678;5.806;2023-05-07T08:53:46;14.23;;;10.60;;
62572;SDS011;48626;51.678;5.806;2023-05-07T08:56:14;15.85;;;10.23;;
62572;SDS011;48626;51.678;5.806;2023-05-07T08:58:43;14.80;;;10.80;;
62572;SDS011;48626;51.678;5.806;2023-05-07T09:01:10;15.35;;;10.82;;
62572;SDS011;48626;51.678;5.806;2023-05-07T09:03:44;16.88;;;10.40;;
62572;SDS011;48626;51.678;5.806;2023-05-07T09:06:11;17.17;;;10.10;;
62572;SDS011;48626;51.678;5.806;2023-05-07T09:08:37;15.23;;;9.95;;
62572;SDS011;48626;51.678;5.806;2023-05-07T09:11:03;15.95;;;9.80;;
62572;SDS011;48626;51.678;5.806;2023-05-07T09:13:29;14.80;;;10.13;;
62572;SDS011;48626;51.678;5.806;2023-05-07T09:15:55;14.65;;;10.18;;
62572;SDS011;48626;51.678;5.806;2023-05-07T09:18:20;13.00;;;10.07;;
62572;SDS011;48626;51.678;5.806;2023-05-07T09:20:48;11.85;;;10.02;;
62572;SDS011;48626;51.678;5.806;2023-05-07T09:23:14;14.38;;;11.45;;
62572;SDS011;48626;51.678;5.806;2023-05-07T09:25:40;16.33;;;11.00;;
62572;SDS011;48626;51.678;5.806;2023-05-07T09:28:05;13.32;;;10.63;;
62572;SDS011;48626;51.678;5.806;2023-05-07T09:30:32;17.73;;;10.55;;
62572;SDS011;48626;51.678;5.806;2023-05-07T09:33:00;15.20;;;10.50;;
62572;SDS011;48626;51.678;5.806;2023-05-07T09:35:26;15.98;;;10.23;;
62572;SDS011;48626;51.678;5.806;2023-05-07T09:37:53;15.93;;;10.48;;
62572;SDS011;48626;51.678;5.806;2023-05-07T09:40:23;12.77;;;10.38;;
62572;SDS011;48626;51.678;5.806;2023-05-07T09:42:50;14.57;;;10.70;;
62572;SDS011;48626;51.678;5.806;2023-05-07T09:45:16;15.98;;;10.82;;
62572;SDS011;48626;51.678;5.806;2023-05-07T09:47:49;13.82;;;10.38;;
62572;SDS011;48626;51.678;5.806;2023-05-07T09:50:21;12.55;;;8.65;;
62572;SDS011;48626;51.678;5.806;2023-05-07T09:53:07;11.70;;;9.30;;
62572;SDS011;48626;51.678;5.806;2023-05-07T09:55:35;17.33;;;9.75;;
62572;SDS011;48626;51.678;5.806;2023-05-07T09:58:02;12.65;;;9.18;;
62572;SDS011;48626;51.678;5.806;2023-05-07T10:00:31;13.88;;;9.70;;
62572;SDS011;48626;51.678;5.806;2023-05-07T10:02:57;14.45;;;9.40;;
62572;SDS011;48626;51.678;5.806;2023-05-07T10:05:25;12.63;;;9.35;;
62572;SDS011;48626;51.678;5.806;2023-05-07T10:07:52;14.48;;;9.23;;
62572;SDS011;48626;51.678;5.806;2023-05-07T10:10:18;13.50;;;9.13;;
62572;SDS011;48626;51.678;5.806;2023-05-07T10:12:44;11.57;;;9.15;;
62572;SDS011;48626;51.678;5.806;2023-05-07T10:15:10;13.00;;;9.95;;
62572;SDS011;48626;51.678;5.806;2023-05-07T10:17:37;12.07;;;8.38;;
62572;SDS011;48626;51.678;5.806;2023-05-07T10:20:07;12.02;;;8.15;;
62572;SDS011;48626;51.678;5.806;2023-05-07T10:22:43;12.88;;;9.00;;
62572;SDS011;48626;51.678;5.806;2023-05-07T10:25:20;12.18;;;8.57;;
62572;SDS011;48626;51.678;5.806;2023-05-07T10:27:48;13.18;;;8.15;;
62572;SDS011;48626;51.678;5.806;2023-05-07T10:32:56;13.27;;;8.77;;
62572;SDS011;48626;51.678;5.806;2023-05-07T10:35:31;12.43;;;8.88;;
62572;SDS011;48626;51.678;5.806;2023-05-07T10:38:03;10.27;;;7.93;;
62572;SDS011;48626;51.678;5.806;2023-05-07T10:40:30;12.27;;;8.55;;
62572;SDS011;48626;51.678;5.806;2023-05-07T10:43:00;12.55;;;9.63;;
62572;SDS011;48626;51.678;5.806;2023-05-07T10:45:27;17.25;;;9.25;;
62572;SDS011;48626;51.678;5.806;2023-05-07T10:50:52;12.13;;;8.30;;
62572;SDS011;48626;51.678;5.806;2023-05-07T10:53:44;14.18;;;8.38;;
62572;SDS011;48626;51.678;5.806;2023-05-07T10:58:42;11.55;;;7.60;;
62572;SDS011;48626;51.678;5.806;2023-05-07T11:01:07;12.18;;;8.02;;
62572;SDS011;48626;51.678;5.806;2023-05-07T11:03:33;12.15;;;8.60;;
62572;SDS011;48626;51.678;5.806;2023-05-07T11:06:09;14.38;;;8.38;;
62572;SDS011;48626;51.678;5.806;2023-05-07T11:08:57;15.70;;;8.38;;
62572;SDS011;48626;51.678;5.806;2023-05-07T11:12:05;12.10;;;7.80;;
62572;SDS011;48626;51.678;5.806;2023-05-07T11:14:13;11.15;;;7.03;;
62572;SDS011;48626;51.678;5.806;2023-05-07T11:17:02;10.27;;;7.47;;
62572;SDS011;48626;51.678;5.806;2023-05-07T11:19:47;15.35;;;8.00;;
62572;SDS011;48626;51.678;5.806;2023-05-07T11:22:35;11.95;;;7.75;;
62572;SDS011;48626;51.678;5.806;2023-05-07T11:25:04;10.60;;;6.70;;
62572;SDS011;48626;51.678;5.806;2023-05-07T11:29:57;10.98;;;6.88;;
62572;SDS011;48626;51.678;5.806;2023-05-07T11:32:23;9.52;;;6.75;;
62572;SDS011;48626;51.678;5.806;2023-05-07T11:34:53;14.48;;;6.72;;
62572;SDS011;48626;51.678;5.806;2023-05-07T11:37:20;9.27;;;5.80;;
62572;SDS011;48626;51.678;5.806;2023-05-07T11:39:47;9.05;;;5.53;;
62572;SDS011;48626;51.678;5.806;2023-05-07T11:45:19;9.13;;;5.45;;
62572;SDS011;48626;51.678;5.806;2023-05-07T11:47:50;10.50;;;5.38;;
62572;SDS011;48626;51.678;5.806;2023-05-07T11:50:15;8.48;;;5.45;;
62572;SDS011;48626;51.678;5.806;2023-05-07T11:52:49;8.35;;;5.60;;
62572;SDS011;48626;51.678;5.806;2023-05-07T11:55:17;10.60;;;5.03;;
62572;SDS011;48626;51.678;5.806;2023-05-07T11:57:44;10.82;;;5.28;;
62572;SDS011;48626;51.678;5.806;2023-05-07T12:00:10;9.95;;;5.30;;
62572;SDS011;48626;51.678;5.806;2023-05-07T12:02:36;8.20;;;5.47;;
62572;SDS011;48626;51.678;5.806;2023-05-07T12:05:02;10.55;;;4.82;;
62572;SDS011;48626;51.678;5.806;2023-05-07T12:07:27;8.35;;;5.20;;
62572;SDS011;48626;51.678;5.806;2023-05-07T12:09:53;11.88;;;5.72;;
62572;SDS011;48626;51.678;5.806;2023-05-07T12:12:19;7.53;;;5.32;;
62572;SDS011;48626;51.678;5.806;2023-05-07T12:14:45;9.40;;;5.63;;
62572;SDS011;48626;51.678;5.806;2023-05-07T12:17:11;9.95;;;4.93;;
62572;SDS011;48626;51.678;5.806;2023-05-07T12:19:39;13.52;;;4.50;;
62572;SDS011;48626;51.678;5.806;2023-05-07T12:22:07;7.85;;;4.22;;
62572;SDS011;48626;51.678;5.806;2023-05-07T12:24:46;11.45;;;4.70;;
62572;SDS011;48626;51.678;5.806;2023-05-07T12:27:13;11.02;;;5.00;;
62572;SDS011;48626;51.678;5.806;2023-05-07T12:29:43;10.65;;;4.85;;
62572;SDS011;48626;51.678;5.806;2023-05-07T12:32:14;8.63;;;4.57;;
62572;SDS011;48626;51.678;5.806;2023-05-07T12:34:41;7.75;;;4.43;;
62572;SDS011;48626;51.678;5.806;2023-05-07T12:37:07;7.47;;;4.95;;
62572;SDS011;48626;51.678;5.806;2023-05-07T12:39:33;7.18;;;4.85;;
62572;SDS011;48626;51.678;5.806;2023-05-07T12:41:59;8.10;;;5.30;;
62572;SDS011;48626;51.678;5.806;2023-05-07T12:44:25;9.15;;;5.03;;
62572;SDS011;48626;51.678;5.806;2023-05-07T12:46:55;10.30;;;4.38;;
62572;SDS011;48626;51.678;5.806;2023-05-07T12:49:22;8.23;;;4.82;;
62572;SDS011;48626;51.678;5.806;2023-05-07T12:51:48;8.05;;;4.78;;
62572;SDS011;48626;51.678;5.806;2023-05-07T12:54:37;8.73;;;4.18;;
62572;SDS011;48626;51.678;5.806;2023-05-07T12:57:07;11.02;;;4.97;;
62572;SDS011;48626;51.678;5.806;2023-05-07T12:59:37;10.88;;;4.60;;
62572;SDS011;48626;51.678;5.806;2023-05-07T13:02:05;6.93;;;4.43;;
62572;SDS011;48626;51.678;5.806;2023-05-07T13:04:31;12.82;;;4.85;;
62572;SDS011;48626;51.678;5.806;2023-05-07T13:06:57;5.95;;;3.97;;
62572;SDS011;48626;51.678;5.806;2023-05-07T13:09:23;9.63;;;4.55;;
62572;SDS011;48626;51.678;5.806;2023-05-07T13:11:49;6.35;;;4.10;;
62572;SDS011;48626;51.678;5.806;2023-05-07T13:14:15;6.20;;;3.65;;
62572;SDS011;48626;51.678;5.806;2023-05-07T13:16:40;8.52;;;4.43;;
62572;SDS011;48626;51.678;5.806;2023-05-07T13:19:06;10.02;;;4.40;;
62572;SDS011;48626;51.678;5.806;2023-05-07T13:21:32;8.55;;;4.35;;
62572;SDS011;48626;51.678;5.806;2023-05-07T13:23:57;8.38;;;3.90;;
62572;SDS011;48626;51.678;5.806;2023-05-07T13:26:24;9.10;;;3.97;;
62572;SDS011;48626;51.678;5.806;2023-05-07T13:28:50;5.75;;;4.07;;
62572;SDS011;48626;51.678;5.806;2023-05-07T13:31:16;8.75;;;4.53;;
62572;SDS011;48626;51.678;5.806;2023-05-07T13:33:42;9.93;;;3.95;;
62572;SDS011;48626;51.678;5.806;2023-05-07T13:36:08;6.22;;;3.83;;
62572;SDS011;48626;51.678;5.806;2023-05-07T13:38:34;9.27;;;4.05;;
62572;SDS011;48626;51.678;5.806;2023-05-07T13:41:00;10.20;;;3.75;;
62572;SDS011;48626;51.678;5.806;2023-05-07T13:43:26;8.95;;;3.97;;
62572;SDS011;48626;51.678;5.806;2023-05-07T13:45:52;8.32;;;3.72;;
62572;SDS011;48626;51.678;5.806;2023-05-07T13:48:17;8.15;;;4.07;;
62572;SDS011;48626;51.678;5.806;2023-05-07T13:50:43;8.60;;;4.00;;
62572;SDS011;48626;51.678;5.806;2023-05-07T13:53:09;5.50;;;3.58;;
62572;SDS011;48626;51.678;5.806;2023-05-07T13:55:35;9.52;;;4.18;;
62572;SDS011;48626;51.678;5.806;2023-05-07T13:58:01;6.60;;;3.17;;
62572;SDS011;48626;51.678;5.806;2023-05-07T14:00:27;3.92;;;2.30;;
62572;SDS011;48626;51.678;5.806;2023-05-07T14:02:54;3.28;;;2.13;;
62572;SDS011;48626;51.678;5.806;2023-05-07T14:05:21;5.80;;;2.30;;
62572;SDS011;48626;51.678;5.806;2023-05-07T14:07:48;3.70;;;2.00;;
62572;SDS011;48626;51.678;5.806;2023-05-07T14:10:17;9.77;;;4.95;;
62572;SDS011;48626;51.678;5.806;2023-05-07T14:12:43;6.25;;;2.38;;
62572;SDS011;48626;51.678;5.806;2023-05-07T14:15:10;12.02;;;2.25;;
62572;SDS011;48626;51.678;5.806;2023-05-07T14:17:36;5.25;;;2.17;;
62572;SDS011;48626;51.678;5.806;2023-05-07T14:20:02;3.08;;;1.90;;
62572;SDS011;48626;51.678;5.806;2023-05-07T14:22:28;3.40;;;1.88;;
62572;SDS011;48626;51.678;5.806;2023-05-07T14:24:54;4.63;;;1.98;;
62572;SDS011;48626;51.678;5.806;2023-05-07T14:27:19;3.60;;;2.10;;
62572;SDS011;48626;51.678;5.806;2023-05-07T14:29:45;4.20;;;2.03;;
62572;SDS011;48626;51.678;5.806;2023-05-07T14:32:15;9.32;;;2.45;;
62572;SDS011;48626;51.678;5.806;2023-05-07T14:34:43;3.72;;;2.10;;
62572;SDS011;48626;51.678;5.806;2023-05-07T14:37:09;3.15;;;2.03;;
62572;SDS011;48626;51.678;5.806;2023-05-07T14:39:35;4.38;;;2.10;;
62572;SDS011;48626;51.678;5.806;2023-05-07T14:42:01;3.97;;;2.10;;
62572;SDS011;48626;51.678;5.806;2023-05-07T14:44:27;3.58;;;2.10;;